Time,TemperatureF,DewpointF,PressureIn,WindDirection,WindDirectionDegrees,WindSpeedMPH,WindSpeedGustMPH,Humidity,HourlyPrecipIn,Conditions,Clouds,dailyrainin,SoftwareType,DateUTC
2013-01-08 00:00:00,22.8,18.4,29.98,North,355,1.0,1.0,83,0.00,,,0.00,Wunderground v.1.15,2013-01-08 06:00:00,
2013-01-08 00:10:00,22.6,18.2,29.98,North,355,1.0,1.0,83,0.00,,,0.00,Wunderground v.1.15,2013-01-08 06:10:00,
2013-01-08 00:20:00,22.1,17.7,29.98,North,355,0.0,0.0,83,0.00,,,0.00,Wunderground v.1.15,2013-01-08 06:20:00,
2013-01-08 00:30:00,21.9,17.5,29.98,North,355,0.0,0.0,83,0.00,,,0.00,Wunderground v.1.15,2013-01-08 06:30:00,
2013-01-08 00:35:00,21.8,17.4,29.98,North,355,0.0,0.0,83,0.00,,,0.00,Wunderground v.1.15,2013-01-08 06:35:00,
2013-01-08 00:40:00,21.9,17.8,29.98,North,355,0.0,0.0,84,0.00,,,0.00,Wunderground v.1.15,2013-01-08 06:40:00,
2013-01-08 00:50:00,21.7,17.6,29.97,North,355,0.0,0.0,84,0.00,,,0.00,Wunderground v.1.15,2013-01-08 06:50:00,
2013-01-08 01:00:00,20.6,16.3,29.96,North,355,1.0,1.0,83,0.00,,,0.00,Wunderground v.1.15,2013-01-08 07:00:00,
2013-01-08 01:10:00,20.8,17.0,29.96,North,355,0.0,0.0,85,0.00,,,0.00,Wunderground v.1.15,2013-01-08 07:10:00,
2013-01-08 01:20:00,21.1,17.3,29.96,North,355,0.0,0.0,85,0.00,,,0.00,Wunderground v.1.15,2013-01-08 07:20:00,
2013-01-08 01:30:00,20.7,16.6,29.96,North,355,0.0,0.0,84,0.00,,,0.00,Wunderground v.1.15,2013-01-08 07:30:00,
2013-01-08 01:35:00,20.7,16.9,29.96,North,355,0.0,0.0,85,0.00,,,0.00,Wunderground v.1.15,2013-01-08 07:35:00,
2013-01-08 01:45:00,20.4,16.6,29.95,North,355,1.0,1.0,85,0.00,,,0.00,Wunderground v.1.15,2013-01-08 07:45:00,
2013-01-08 01:50:00,20.0,15.9,29.95,North,355,0.0,0.0,84,0.00,,,0.00,Wunderground v.1.15,2013-01-08 07:50:00,
2013-01-08 02:00:00,19.7,15.9,29.94,North,355,0.0,0.0,85,0.00,,,0.00,Wunderground v.1.15,2013-01-08 08:00:00,
2013-01-08 02:10:00,19.6,15.8,29.95,North,355,0.0,2.0,85,0.00,,,0.00,Wunderground v.1.15,2013-01-08 08:10:00,
2013-01-08 02:20:00,19.3,15.5,29.94,North,355,1.0,1.0,85,0.00,,,0.00,Wunderground v.1.15,2013-01-08 08:20:00,
2013-01-08 02:30:00,19.4,15.9,29.94,North,355,0.0,2.0,86,0.00,,,0.00,Wunderground v.1.15,2013-01-08 08:30:00,
2013-01-08 02:35:00,19.3,15.8,29.94,North,355,0.0,2.0,86,0.00,,,0.00,Wunderground v.1.15,2013-01-08 08:35:00,
2013-01-08 02:40:00,19.2,15.7,29.94,North,355,0.0,2.0,86,0.00,,,0.00,Wunderground v.1.15,2013-01-08 08:40:00,
2013-01-08 02:50:00,18.8,15.3,29.94,North,355,1.0,2.0,86,0.00,,,0.00,Wunderground v.1.15,2013-01-08 08:50:00,
2013-01-08 03:00:00,17.8,14.1,29.94,North,355,0.0,2.0,85,0.00,,,0.00,Wunderground v.1.15,2013-01-08 09:00:00,
2013-01-08 03:10:00,17.9,14.7,29.94,North,355,0.0,2.0,87,0.00,,,0.00,Wunderground v.1.15,2013-01-08 09:10:00,
2013-01-08 03:20:00,18.5,15.0,29.93,North,355,1.0,2.0,86,0.00,,,0.00,Wunderground v.1.15,2013-01-08 09:20:00,
2013-01-08 03:25:00,17.1,13.4,29.93,North,355,2.0,2.0,85,0.00,,,0.00,Wunderground v.1.15,2013-01-08 09:25:00,
2013-01-08 03:35:00,16.8,13.3,29.92,North,355,2.0,2.0,86,0.00,,,0.00,Wunderground v.1.15,2013-01-08 09:35:00,
2013-01-08 03:40:00,17.6,14.4,29.92,North,355,2.0,2.0,87,0.00,,,0.00,Wunderground v.1.15,2013-01-08 09:40:00,
2013-01-08 03:50:00,18.0,14.8,29.92,North,355,1.0,1.0,87,0.00,,,0.00,Wunderground v.1.15,2013-01-08 09:50:00,
2013-01-08 04:00:00,18.9,15.7,29.92,North,355,1.0,2.0,87,0.00,,,0.00,Wunderground v.1.15,2013-01-08 10:00:00,
2013-01-08 04:05:00,19.0,15.8,29.92,North,355,1.0,2.0,87,0.00,,,0.00,Wunderground v.1.15,2013-01-08 10:05:00,
2013-01-08 04:15:00,18.8,15.6,29.91,North,355,1.0,2.0,87,0.00,,,0.00,Wunderground v.1.15,2013-01-08 10:15:00,
2013-01-08 04:20:00,18.6,15.4,29.92,North,355,1.0,2.0,87,0.00,,,0.00,Wunderground v.1.15,2013-01-08 10:20:00,
2013-01-08 04:30:00,18.0,14.5,29.91,North,355,1.0,1.0,86,0.00,,,0.00,Wunderground v.1.15,2013-01-08 10:30:00,
2013-01-08 04:40:00,17.6,14.4,29.91,North,355,0.0,2.0,87,0.00,,,0.00,Wunderground v.1.15,2013-01-08 10:40:00,
2013-01-08 04:50:00,17.5,14.3,29.91,North,355,1.0,1.0,87,0.00,,,0.00,Wunderground v.1.15,2013-01-08 10:50:00,
2013-01-08 05:00:00,17.9,14.7,29.90,North,355,1.0,2.0,87,0.00,,,0.00,Wunderground v.1.15,2013-01-08 11:00:00,
2013-01-08 05:10:00,18.0,14.8,29.90,North,355,1.0,2.0,87,0.00,,,0.00,Wunderground v.1.15,2013-01-08 11:10:00,
2013-01-08 05:15:00,17.7,14.5,29.90,North,355,1.0,2.0,87,0.00,,,0.00,Wunderground v.1.15,2013-01-08 11:15:00,
2013-01-08 05:20:00,17.3,14.1,29.90,North,355,1.0,1.0,87,0.00,,,0.00,Wunderground v.1.15,2013-01-08 11:20:00,
2013-01-08 05:35:00,17.1,13.9,29.89,North,355,0.0,2.0,87,0.00,,,0.00,Wunderground v.1.15,2013-01-08 11:35:00,
2013-01-08 05:40:00,17.0,13.8,29.88,North,355,0.0,2.0,87,0.00,,,0.00,Wunderground v.1.15,2013-01-08 11:40:00,
2013-01-08 05:50:00,16.6,13.4,29.89,North,355,0.0,2.0,87,0.00,,,0.00,Wunderground v.1.15,2013-01-08 11:50:00,
2013-01-08 06:00:00,16.6,13.4,29.89,North,355,0.0,0.0,87,0.00,,,0.00,Wunderground v.1.15,2013-01-08 12:00:00,
2013-01-08 06:10:00,17.0,13.8,29.89,North,355,1.0,1.0,87,0.00,,,0.00,Wunderground v.1.15,2013-01-08 12:10:00,
2013-01-08 06:20:00,16.6,13.4,29.89,North,355,0.0,0.0,87,0.00,,,0.00,Wunderground v.1.15,2013-01-08 12:20:00,
2013-01-08 06:25:00,16.0,12.8,29.88,North,355,0.0,0.0,87,0.00,,,0.00,Wunderground v.1.15,2013-01-08 12:25:00,
2013-01-08 06:35:00,15.4,12.2,29.88,North,355,1.0,1.0,87,0.00,,,0.00,Wunderground v.1.15,2013-01-08 12:35:00,
2013-01-08 06:40:00,15.5,12.3,29.88,North,355,1.0,1.0,87,0.00,,,0.00,Wunderground v.1.15,2013-01-08 12:40:00,
2013-01-08 06:50:00,15.9,12.7,29.88,North,355,2.0,2.0,87,0.00,,,0.00,Wunderground v.1.15,2013-01-08 12:50:00,
2013-01-08 07:00:00,16.3,13.1,29.88,North,355,1.0,1.0,87,0.00,,,0.00,Wunderground v.1.15,2013-01-08 13:00:00,
2013-01-08 07:10:00,16.1,12.9,29.88,North,355,2.0,2.0,87,0.00,,,0.00,Wunderground v.1.15,2013-01-08 13:10:00,
2013-01-08 07:20:00,16.1,12.9,29.91,WSW,256,5.0,5.0,87,0.00,,,0.00,Wunderground v.1.15,2013-01-08 13:20:00,
2013-01-08 07:25:00,16.3,13.1,29.90,SSW,212,6.0,6.0,87,0.00,,,0.00,Wunderground v.1.15,2013-01-08 13:25:00,
2013-01-08 07:30:00,16.3,13.1,29.90,SW,219,5.0,5.0,87,0.00,,,0.00,Wunderground v.1.15,2013-01-08 13:30:00,
2013-01-08 07:40:00,15.9,12.7,29.90,SW,218,3.0,3.0,87,0.00,,,0.00,Wunderground v.1.15,2013-01-08 13:40:00,
2013-01-08 07:50:00,16.0,12.8,29.89,SW,218,1.0,1.0,87,0.00,,,0.00,Wunderground v.1.15,2013-01-08 13:50:00,
2013-01-08 08:00:00,16.1,12.9,29.89,SW,218,1.0,2.0,87,0.00,,,0.00,Wunderground v.1.15,2013-01-08 14:00:00,
2013-01-08 08:05:00,16.3,13.1,29.89,SW,218,1.0,2.0,87,0.00,,,0.00,Wunderground v.1.15,2013-01-08 14:05:00,
2013-01-08 08:10:00,16.4,13.2,29.88,SW,218,1.0,1.0,87,0.00,,,0.00,Wunderground v.1.15,2013-01-08 14:10:00,
2013-01-08 08:20:00,17.5,14.6,29.88,SW,218,1.0,2.0,88,0.00,,,0.00,Wunderground v.1.15,2013-01-08 14:20:00,
2013-01-08 08:30:00,18.4,15.4,29.88,SW,217,2.0,2.0,88,0.00,,,0.00,Wunderground v.1.15,2013-01-08 14:30:00,
2013-01-08 08:40:00,19.6,16.6,29.85,SSE,165,3.0,3.0,88,0.00,,,0.00,Wunderground v.1.15,2013-01-08 14:40:00,
2013-01-08 08:50:00,21.2,18.5,29.87,SW,223,4.0,5.0,89,0.00,,,0.00,Wunderground v.1.15,2013-01-08 14:50:00,
2013-01-08 08:55:00,21.3,18.3,29.86,SSW,202,5.0,7.0,88,0.00,,,0.00,Wunderground v.1.15,2013-01-08 14:55:00,
2013-01-08 09:05:00,21.2,18.2,29.87,SSW,205,4.0,5.0,88,0.00,,,0.00,Wunderground v.1.15,2013-01-08 15:05:00,
2013-01-08 09:10:00,21.1,18.1,29.87,SSW,205,3.0,3.0,88,0.00,,,0.00,Wunderground v.1.15,2013-01-08 15:10:00,
2013-01-08 09:20:00,21.3,18.3,29.87,SSW,205,2.0,3.0,88,0.00,,,0.00,Wunderground v.1.15,2013-01-08 15:20:00,
2013-01-08 09:25:00,21.7,18.7,29.87,SSW,205,2.0,3.0,88,0.00,,,0.00,Wunderground v.1.15,2013-01-08 15:25:00,
2013-01-08 09:30:00,22.0,19.0,29.87,SSW,205,2.0,3.0,88,0.00,,,0.00,Wunderground v.1.15,2013-01-08 15:30:00,
2013-01-08 09:40:00,23.2,20.4,29.87,SSW,205,2.0,3.0,89,0.00,,,0.00,Wunderground v.1.15,2013-01-08 15:40:00,
2013-01-08 09:50:00,24.3,21.5,29.87,SSW,205,3.0,4.0,89,0.00,,,0.00,Wunderground v.1.15,2013-01-08 15:50:00,
2013-01-08 10:00:00,25.5,22.7,29.87,SSW,207,4.0,4.0,89,0.00,,,0.00,Wunderground v.1.15,2013-01-08 16:00:00,
2013-01-08 10:05:00,26.1,23.3,29.87,SSW,208,4.0,4.0,89,0.00,,,0.00,Wunderground v.1.15,2013-01-08 16:05:00,
2013-01-08 10:10:00,26.4,23.6,29.87,SSW,209,3.0,4.0,89,0.00,,,0.00,Wunderground v.1.15,2013-01-08 16:10:00,
2013-01-08 10:20:00,27.0,24.2,29.88,SSW,209,3.0,3.0,89,0.00,,,0.00,Wunderground v.1.15,2013-01-08 16:20:00,
2013-01-08 10:30:00,28.1,25.3,29.88,SSW,209,3.0,3.0,89,0.00,,,0.00,Wunderground v.1.15,2013-01-08 16:30:00,
2013-01-08 10:35:00,28.8,26.0,29.88,SSW,209,4.0,6.0,89,0.00,,,0.00,Wunderground v.1.15,2013-01-08 16:35:00,
2013-01-08 10:45:00,30.3,27.4,29.87,SW,221,5.0,5.0,89,0.00,,,0.00,Wunderground v.1.15,2013-01-08 16:45:00,
2013-01-08 10:50:00,31.0,27.9,29.87,SW,231,5.0,5.0,88,0.00,,,0.00,Wunderground v.1.15,2013-01-08 16:50:00,
2013-01-08 11:00:00,32.3,28.9,29.87,SW,236,5.0,5.0,87,0.00,,,0.00,Wunderground v.1.15,2013-01-08 17:00:00,
2013-01-08 11:10:00,34.1,29.8,29.86,WSW,237,5.0,5.0,84,0.00,,,0.00,Wunderground v.1.15,2013-01-08 17:10:00,
2013-01-08 11:20:00,35.7,29.8,29.85,WSW,247,6.0,6.0,79,0.00,,,0.00,Wunderground v.1.15,2013-01-08 17:20:00,
2013-01-08 11:30:00,37.0,29.1,29.85,West,259,8.0,11.0,73,0.00,,,0.00,Wunderground v.1.15,2013-01-08 17:30:00,
2013-01-08 11:35:00,37.6,29.7,29.85,WSW,248,9.0,11.0,73,0.00,,,0.00,Wunderground v.1.15,2013-01-08 17:35:00,
2013-01-08 11:40:00,38.3,29.7,29.85,WSW,249,8.0,8.0,71,0.00,,,0.00,Wunderground v.1.15,2013-01-08 17:40:00,
2013-01-08 11:50:00,39.7,30.7,29.85,WSW,249,6.0,6.0,70,0.00,,,0.00,Wunderground v.1.15,2013-01-08 17:50:00,
2013-01-08 12:00:00,41.4,31.3,29.84,West,281,5.0,5.0,67,0.00,,,0.00,Wunderground v.1.15,2013-01-08 18:00:00,
2013-01-08 12:10:00,42.9,29.1,29.84,WNW,298,10.0,11.0,58,0.00,,,0.00,Wunderground v.1.15,2013-01-08 18:10:00,
2013-01-08 12:20:00,43.7,28.1,29.84,WNW,286,11.0,11.0,54,0.00,,,0.00,Wunderground v.1.15,2013-01-08 18:20:00,
2013-01-08 12:30:00,43.9,28.3,29.84,WNW,288,11.0,11.0,54,0.00,,,0.00,Wunderground v.1.15,2013-01-08 18:30:00,
2013-01-08 12:40:00,43.7,29.5,29.84,WNW,289,11.0,11.0,57,0.00,,,0.00,Wunderground v.1.15,2013-01-08 18:40:00,
2013-01-08 12:45:00,44.0,30.2,29.84,WNW,292,10.0,11.0,58,0.00,,,0.00,Wunderground v.1.15,2013-01-08 18:45:00,
2013-01-08 12:50:00,44.0,29.7,29.84,WNW,299,9.0,9.0,57,0.00,,,0.00,Wunderground v.1.15,2013-01-08 18:50:00,
2013-01-08 13:00:00,44.1,29.8,29.84,WNW,290,9.0,12.0,57,0.00,,,0.00,Wunderground v.1.15,2013-01-08 19:00:00,
2013-01-08 13:10:00,43.9,29.6,29.84,WNW,287,11.0,13.0,57,0.00,,,0.00,Wunderground v.1.15,2013-01-08 19:10:00,
2013-01-08 13:20:00,43.4,30.4,29.84,WNW,298,11.0,11.0,60,0.00,,,0.00,Wunderground v.1.15,2013-01-08 19:20:00,
2013-01-08 13:30:00,43.5,31.3,29.84,NW,304,10.0,10.0,62,0.00,,,0.00,Wunderground v.1.15,2013-01-08 19:30:00,
2013-01-08 13:40:00,43.6,31.8,29.86,WNW,292,8.0,9.0,63,0.00,,,0.00,Wunderground v.1.15,2013-01-08 19:40:00,
2013-01-08 13:50:00,43.8,31.6,29.86,NW,304,12.0,12.0,62,0.00,,,0.00,Wunderground v.1.15,2013-01-08 19:50:00,
2013-01-08 14:00:00,43.7,31.9,29.86,NW,318,11.0,11.0,63,0.00,,,0.00,Wunderground v.1.15,2013-01-08 20:00:00,
2013-01-08 14:10:00,43.5,31.3,29.87,WNW,300,10.0,14.0,62,0.00,,,0.00,Wunderground v.1.15,2013-01-08 20:10:00,
2013-01-08 14:15:00,43.4,31.6,29.87,WNW,293,11.0,14.0,63,0.00,,,0.00,Wunderground v.1.15,2013-01-08 20:15:00,
2013-01-08 14:25:00,43.4,32.0,29.88,WNW,291,9.0,14.0,64,0.00,,,0.00,Wunderground v.1.15,2013-01-08 20:25:00,
2013-01-08 14:30:00,43.4,32.0,29.88,WNW,296,8.0,8.0,64,0.00,,,0.00,Wunderground v.1.15,2013-01-08 20:30:00,
2013-01-08 14:40:00,43.6,32.2,29.89,NW,304,8.0,14.0,64,0.00,,,0.00,Wunderground v.1.15,2013-01-08 20:40:00,
2013-01-08 14:50:00,43.7,32.3,29.90,WNW,302,10.0,14.0,64,0.00,,,0.00,Wunderground v.1.15,2013-01-08 20:50:00,
2013-01-08 15:00:00,43.7,32.3,29.91,WNW,284,9.0,9.0,64,0.00,,,0.00,Wunderground v.1.15,2013-01-08 21:00:00,
2013-01-08 15:10:00,43.8,32.4,29.92,WNW,293,10.0,14.0,64,0.00,,,0.00,Wunderground v.1.15,2013-01-08 21:10:00,
2013-01-08 15:15:00,44.1,32.7,29.93,WNW,290,10.0,14.0,64,0.00,,,0.00,Wunderground v.1.15,2013-01-08 21:15:00,
2013-01-08 15:20:00,44.2,32.4,29.93,WNW,289,10.0,10.0,63,0.00,,,0.00,Wunderground v.1.15,2013-01-08 21:20:00,
2013-01-08 15:30:00,44.2,32.8,29.94,WNW,291,8.0,14.0,64,0.00,,,0.00,Wunderground v.1.15,2013-01-08 21:30:00,
2013-01-08 15:40:00,44.4,32.2,29.95,WNW,288,9.0,14.0,62,0.00,,,0.00,Wunderground v.1.15,2013-01-08 21:40:00,
2013-01-08 15:50:00,44.7,32.5,29.95,WNW,290,9.0,14.0,62,0.00,,,0.00,Wunderground v.1.15,2013-01-08 21:50:00,
2013-01-08 16:00:00,45.5,32.4,29.95,WNW,295,10.0,10.0,60,0.00,,,0.00,Wunderground v.1.15,2013-01-08 22:00:00,
2013-01-08 16:05:00,45.1,32.0,29.95,WNW,285,8.0,14.0,60,0.00,,,0.00,Wunderground v.1.15,2013-01-08 22:05:00,
2013-01-08 16:15:00,44.2,32.4,29.96,WNW,286,6.0,14.0,63,0.00,,,0.00,Wunderground v.1.15,2013-01-08 22:15:00,
2013-01-08 16:20:00,44.5,32.7,29.97,WNW,288,5.0,14.0,63,0.00,,,0.00,Wunderground v.1.15,2013-01-08 22:20:00,
2013-01-08 16:30:00,44.2,32.4,29.97,WNW,288,3.0,14.0,63,0.00,,,0.00,Wunderground v.1.15,2013-01-08 22:30:00,
2013-01-08 16:40:00,44.2,32.4,29.98,WNW,288,3.0,14.0,63,0.00,,,0.00,Wunderground v.1.15,2013-01-08 22:40:00,
2013-01-08 16:45:00,43.8,32.0,29.98,WNW,288,3.0,14.0,63,0.00,,,0.00,Wunderground v.1.15,2013-01-08 22:45:00,
2013-01-08 16:55:00,43.0,31.6,29.98,WNW,288,3.0,14.0,64,0.00,,,0.00,Wunderground v.1.15,2013-01-08 22:55:00,
2013-01-08 17:00:00,42.6,31.3,29.99,WNW,288,3.0,3.0,64,0.00,,,0.00,Wunderground v.1.15,2013-01-08 23:00:00,
2013-01-08 17:10:00,42.6,31.3,29.99,WNW,288,2.0,14.0,64,0.00,,,0.00,Wunderground v.1.15,2013-01-08 23:10:00,
2013-01-08 17:20:00,42.5,31.2,29.99,WNW,288,1.0,14.0,64,0.00,,,0.00,Wunderground v.1.15,2013-01-08 23:20:00,
2013-01-08 17:30:00,43.0,31.3,30.00,WNW,288,2.0,14.0,63,0.00,,,0.00,Wunderground v.1.15,2013-01-08 23:30:00,
2013-01-08 17:35:00,42.1,30.0,30.01,WNW,288,3.0,14.0,62,0.00,,,0.00,Wunderground v.1.15,2013-01-08 23:35:00,
2013-01-08 17:45:00,41.4,30.5,30.01,WNW,288,3.0,14.0,65,0.00,,,0.00,Wunderground v.1.15,2013-01-08 23:45:00,
2013-01-08 17:50:00,41.5,31.0,30.01,WNW,288,2.0,14.0,66,0.00,,,0.00,Wunderground v.1.15,2013-01-08 23:50:00,
2013-01-08 18:00:00,40.7,30.2,30.02,WNW,288,2.0,3.0,66,0.00,,,0.00,Wunderground v.1.15,2013-01-09 00:00:00,
2013-01-08 18:10:00,40.4,31.0,30.03,WNW,288,2.0,2.0,69,0.00,,,0.00,Wunderground v.1.15,2013-01-09 00:10:00,
2013-01-08 18:20:00,41.2,31.1,30.03,WNW,288,1.0,2.0,67,0.00,,,0.00,Wunderground v.1.15,2013-01-09 00:20:00,
2013-01-08 18:30:00,41.7,31.2,30.04,WNW,288,2.0,2.0,66,0.00,,,0.00,Wunderground v.1.15,2013-01-09 00:30:00,
2013-01-08 18:35:00,41.3,30.4,30.04,WNW,288,1.0,2.0,65,0.00,,,0.00,Wunderground v.1.15,2013-01-09 00:35:00,
2013-01-08 18:45:00,40.2,30.1,30.06,WNW,303,3.0,3.0,67,0.00,,,0.00,Wunderground v.1.15,2013-01-09 00:45:00,
2013-01-08 18:55:00,40.5,30.0,30.06,WNW,303,2.0,4.0,66,0.00,,,0.00,Wunderground v.1.15,2013-01-09 00:55:00,
2013-01-08 19:00:00,40.2,29.7,30.06,WNW,303,2.0,2.0,66,0.00,,,0.00,Wunderground v.1.15,2013-01-09 01:00:00,
2013-01-08 19:10:00,38.8,28.8,30.06,WNW,303,1.0,1.0,67,0.00,,,0.00,Wunderground v.1.15,2013-01-09 01:10:00,
2013-01-08 19:20:00,37.5,27.9,30.07,WNW,303,2.0,2.0,68,0.00,,,0.00,Wunderground v.1.15,2013-01-09 01:20:00,
2013-01-08 19:30:00,37.3,28.8,30.08,WNW,303,3.0,3.0,71,0.00,,,0.00,Wunderground v.1.15,2013-01-09 01:30:00,
2013-01-08 19:40:00,36.5,28.0,30.09,WNW,303,2.0,2.0,71,0.00,,,0.00,Wunderground v.1.15,2013-01-09 01:40:00,
2013-01-08 19:50:00,35.3,27.5,30.09,WNW,303,2.0,2.0,73,0.00,,,0.00,Wunderground v.1.15,2013-01-09 01:50:00,
2013-01-08 19:55:00,35.4,27.9,30.09,WNW,303,2.0,2.0,74,0.00,,,0.00,Wunderground v.1.15,2013-01-09 01:55:00,
2013-01-08 20:00:00,35.1,27.6,30.10,WNW,303,2.0,2.0,74,0.00,,,0.00,Wunderground v.1.15,2013-01-09 02:00:00,
2013-01-08 20:10:00,33.6,26.8,30.10,WNW,303,3.0,3.0,76,0.00,,,0.00,Wunderground v.1.15,2013-01-09 02:10:00,
2013-01-08 20:20:00,32.5,25.8,30.11,WNW,303,3.0,5.0,76,0.00,,,0.00,Wunderground v.1.15,2013-01-09 02:20:00,
2013-01-08 20:30:00,32.4,26.6,30.12,WNW,303,2.0,5.0,79,0.00,,,0.00,Wunderground v.1.15,2013-01-09 02:30:00,
2013-01-08 20:40:00,33.2,27.7,30.12,WNW,303,3.0,5.0,80,0.00,,,0.00,Wunderground v.1.15,2013-01-09 02:40:00,
2013-01-08 20:50:00,33.3,27.5,30.12,WNW,303,4.0,4.0,79,0.00,,,0.00,Wunderground v.1.15,2013-01-09 02:50:00,
2013-01-08 20:55:00,33.3,27.5,30.12,WNW,303,4.0,5.0,79,0.00,,,0.00,Wunderground v.1.15,2013-01-09 02:55:00,
2013-01-08 21:00:00,33.6,27.8,30.13,WNW,303,4.0,5.0,79,0.00,,,0.00,Wunderground v.1.15,2013-01-09 03:00:00,
2013-01-08 21:10:00,32.9,27.1,30.13,WNW,303,4.0,5.0,79,0.00,,,0.00,Wunderground v.1.15,2013-01-09 03:10:00,
2013-01-08 21:20:00,32.6,26.8,30.14,WNW,303,4.0,4.0,79,0.00,,,0.00,Wunderground v.1.15,2013-01-09 03:20:00,
2013-01-08 21:30:00,31.6,25.8,30.14,WNW,303,3.0,5.0,79,0.00,,,0.00,Wunderground v.1.15,2013-01-09 03:30:00,
2013-01-08 21:40:00,31.4,25.9,30.15,WNW,303,3.0,5.0,80,0.00,,,0.00,Wunderground v.1.15,2013-01-09 03:40:00,
2013-01-08 21:50:00,32.3,27.1,30.15,WNW,303,4.0,6.0,81,0.00,,,0.00,Wunderground v.1.15,2013-01-09 03:50:00,
2013-01-08 22:00:00,32.6,26.8,30.15,WNW,303,4.0,5.0,79,0.00,,,0.00,Wunderground v.1.15,2013-01-09 04:00:00,
2013-01-08 22:10:00,32.0,25.9,30.16,WNW,303,4.0,5.0,78,0.00,,,0.00,Wunderground v.1.15,2013-01-09 04:10:00,
2013-01-08 22:20:00,32.1,26.3,30.16,WNW,303,4.0,5.0,79,0.00,,,0.00,Wunderground v.1.15,2013-01-09 04:20:00,
2013-01-08 22:25:00,31.8,26.0,30.17,WNW,303,4.0,5.0,79,0.00,,,0.00,Wunderground v.1.15,2013-01-09 04:25:00,
2013-01-08 22:30:00,31.5,25.7,30.17,WNW,303,3.0,5.0,79,0.00,,,0.00,Wunderground v.1.15,2013-01-09 04:30:00,
2013-01-08 22:40:00,30.7,25.0,30.17,WNW,303,3.0,3.0,79,0.00,,,0.00,Wunderground v.1.15,2013-01-09 04:40:00,
2013-01-08 22:45:00,30.2,24.5,30.17,WNW,303,3.0,5.0,79,0.00,,,0.00,Wunderground v.1.15,2013-01-09 04:45:00,
2013-01-08 22:55:00,31.0,25.6,30.18,WNW,303,4.0,5.0,80,0.00,,,0.00,Wunderground v.1.15,2013-01-09 04:55:00,
2013-01-08 23:00:00,31.0,25.6,30.19,WNW,303,4.0,5.0,80,0.00,,,0.00,Wunderground v.1.15,2013-01-09 05:00:00,
2013-01-08 23:05:00,31.3,25.8,30.19,WNW,303,4.0,5.0,80,0.00,,,0.00,Wunderground v.1.15,2013-01-09 05:05:00,
2013-01-08 23:15:00,31.3,25.8,30.20,WNW,303,5.0,5.0,80,0.00,,,0.00,Wunderground v.1.15,2013-01-09 05:15:00,
2013-01-08 23:20:00,31.2,25.7,30.20,WNW,302,5.0,5.0,80,0.00,,,0.00,Wunderground v.1.15,2013-01-09 05:20:00,
2013-01-08 23:25:00,31.0,25.6,30.20,WNW,302,5.0,6.0,80,0.00,,,0.00,Wunderground v.1.15,2013-01-09 05:25:00,
2013-01-08 23:30:00,31.1,25.7,30.20,WNW,302,5.0,5.0,80,0.00,,,0.00,Wunderground v.1.15,2013-01-09 05:30:00,
2013-01-08 23:40:00,31.0,25.6,30.21,WNW,302,5.0,5.0,80,0.00,,,0.00,Wunderground v.1.15,2013-01-09 05:40:00,
2013-01-08 23:50:00,30.5,25.1,30.22,WNW,302,4.0,5.0,80,0.00,,,0.00,Wunderground v.1.15,2013-01-09 05:50:00,